sensor_id;sensor_type;location;lat;lon;timestamp;pressure;altitude;pressure_sealevel;temperature;humidity
16431;BME280;8325;49.284;7.238;2023-07-09T00:15:12;98980.13;;;20.67;78.97
16431;BME280;8325;49.284;7.238;2023-07-09T00:19:25;98980.13;;;20.67;78.95
16431;BME280;8325;49.284;7.238;2023-07-09T00:23:39;98982.38;;;20.52;79.35
16431;BME280;8325;49.284;7.238;2023-07-09T00:27:53;98984.00;;;20.53;79.77
16431;BME280;8325;49.284;7.238;2023-07-09T00:32:11;98986.38;;;20.42;80.08
16431;BME280;8325;49.284;7.238;2023-07-09T00:36:29;98985.53;;;20.30;80.78
16431;BME280;8325;49.284;7.238;2023-07-09T00:41:04;98985.88;;;20.34;80.30
16431;BME280;8325;49.284;7.238;2023-07-09T00:45:24;98983.78;;;20.24;81.25
16431;BME280;8325;49.284;7.238;2023-07-09T04:00:26;99070.81;;;18.15;93.55
16431;BME280;8325;49.284;7.238;2023-07-09T04:04:37;99079.97;;;18.12;93.52
16431;BME280;8325;49.284;7.238;2023-07-09T04:08:49;99067.78;;;18.11;93.22
16431;BME280;8325;49.284;7.238;2023-07-09T04:13:00;99073.84;;;18.18;93.29
16431;BME280;8325;49.284;7.238;2023-07-09T04:17:12;99066.16;;;18.10;93.82
16431;BME280;8325;49.284;7.238;2023-07-09T04:21:24;99076.06;;;18.22;93.04
16431;BME280;8325;49.284;7.238;2023-07-09T04:25:36;99075.81;;;18.30;92.69
16431;BME280;8325;49.284;7.238;2023-07-09T04:29:48;99074.94;;;18.43;92.52
16431;BME280;8325;49.284;7.238;2023-07-09T04:34:01;99076.97;;;18.40;92.76
16431;BME280;8325;49.284;7.238;2023-07-09T04:38:15;99072.88;;;18.51;91.97
16431;BME280;8325;49.284;7.238;2023-07-09T04:42:26;99078.06;;;18.64;91.57
16431;BME280;8325;49.284;7.238;2023-07-09T04:46:38;99071.09;;;18.77;91.12
16431;BME280;8325;49.284;7.238;2023-07-09T04:50:50;99083.09;;;18.79;90.91
16431;BME280;8325;49.284;7.238;2023-07-09T04:55:02;99081.19;;;18.86;90.66
16431;BME280;8325;49.284;7.238;2023-07-09T04:59:14;99080.41;;;18.86;90.83
16431;BME280;8325;49.284;7.238;2023-07-09T05:03:26;99070.25;;;19.08;90.07
16431;BME280;8325;49.284;7.238;2023-07-09T05:07:38;99065.13;;;19.13;89.78
16431;BME280;8325;49.284;7.238;2023-07-09T05:11:50;99069.63;;;19.13;90.26
16431;BME280;8325;49.284;7.238;2023-07-09T05:16:04;99075.88;;;19.43;88.61
16431;BME280;8325;49.284;7.238;2023-07-09T05:20:16;99064.50;;;19.80;87.55
16431;BME280;8325;49.284;7.238;2023-07-09T05:24:28;99057.28;;;22.18;75.64
16431;BME280;8325;49.284;7.238;2023-07-09T05:28:40;99046.59;;;25.17;63.04
16431;BME280;8325;49.284;7.238;2023-07-09T05:32:51;99042.38;;;26.98;55.99
16431;BME280;8325;49.284;7.238;2023-07-09T05:37:05;99045.13;;;28.78;50.16
16431;BME280;8325;49.284;7.238;2023-07-09T05:41:16;99040.28;;;29.86;47.21
16431;BME280;8325;49.284;7.238;2023-07-09T05:45:28;99046.47;;;30.30;45.23
16431;BME280;8325;49.284;7.238;2023-07-09T05:49:40;99046.81;;;31.26;43.00
16431;BME280;8325;49.284;7.238;2023-07-09T05:53:51;99052.75;;;31.97;41.59
16431;BME280;8325;49.284;7.238;2023-07-09T05:58:03;99047.66;;;31.54;42.53
16431;BME280;8325;49.284;7.238;2023-07-09T06:02:19;99046.56;;;31.09;43.58
16431;BME280;8325;49.284;7.238;2023-07-09T06:06:31;99045.81;;;32.41;40.72
16431;BME280;8325;49.284;7.238;2023-07-09T06:11:02;99042.72;;;32.70;39.78
16431;BME280;8325;49.284;7.238;2023-07-09T06:15:14;99051.78;;;32.97;39.71
16431;BME280;8325;49.284;7.238;2023-07-09T06:19:26;99050.50;;;31.16;42.92
16431;BME280;8325;49.284;7.238;2023-07-09T06:23:37;99049.78;;;31.11;43.70
16431;BME280;8325;49.284;7.238;2023-07-09T06:27:49;99044.19;;;32.99;40.55
16431;BME280;8325;49.284;7.238;2023-07-09T06:32:01;99038.00;;;33.38;39.59
16431;BME280;8325;49.284;7.238;2023-07-09T06:36:13;99041.94;;;32.33;40.87
16431;BME280;8325;49.284;7.238;2023-07-09T06:40:25;99035.84;;;31.92;42.74
16431;BME280;8325;49.284;7.238;2023-07-09T06:44:36;99045.06;;;30.32;46.11
16431;BME280;8325;49.284;7.238;2023-07-09T06:48:48;99042.13;;;30.85;45.79
16431;BME280;8325;49.284;7.238;2023-07-09T06:52:59;99051.97;;;30.57;46.66
16431;BME280;8325;49.284;7.238;2023-07-09T06:57:11;99053.00;;;30.23;48.18
16431;BME280;8325;49.284;7.238;2023-07-09T07:01:22;99060.00;;;30.43;48.25
16431;BME280;8325;49.284;7.238;2023-07-09T07:05:35;99057.19;;;30.11;48.10
16431;BME280;8325;49.284;7.238;2023-07-09T07:09:46;99057.47;;;30.33;48.07
16431;BME280;8325;49.284;7.238;2023-07-09T07:13:58;99047.78;;;29.89;48.81
16431;BME280;8325;49.284;7.238;2023-07-09T07:18:09;99050.22;;;29.67;50.29
16431;BME280;8325;49.284;7.238;2023-07-09T07:22:21;99050.16;;;29.19;51.12
16431;BME280;8325;49.284;7.238;2023-07-09T07:26:33;99044.13;;;29.80;49.30
16431;BME280;8325;49.284;7.238;2023-07-09T07:30:45;99044.34;;;29.35;51.06
16431;BME280;8325;49.284;7.238;2023-07-09T07:34:56;99045.84;;;29.23;51.92
16431;BME280;8325;49.284;7.238;2023-07-09T07:39:08;99052.22;;;29.80;50.39
16431;BME280;8325;49.284;7.238;2023-07-09T07:43:20;99057.59;;;29.80;50.54
16431;BME280;8325;49.284;7.238;2023-07-09T07:47:31;99057.41;;;29.47;51.63
16431;BME280;8325;49.284;7.238;2023-07-09T07:51:46;99056.06;;;29.74;50.89
16431;BME280;8325;49.284;7.238;2023-07-09T07:55:58;99049.25;;;30.00;51.22
16431;BME280;8325;49.284;7.238;2023-07-09T08:00:10;99041.09;;;30.48;49.84
16431;BME280;8325;49.284;7.238;2023-07-09T08:04:25;99041.94;;;30.95;48.98
16431;BME280;8325;49.284;7.238;2023-07-09T08:08:37;99042.84;;;31.37;48.56
16431;BME280;8325;49.284;7.238;2023-07-09T08:12:49;99035.63;;;31.47;48.25
16431;BME280;8325;49.284;7.238;2023-07-09T08:17:00;99029.63;;;31.22;46.70
16431;BME280;8325;49.284;7.238;2023-07-09T08:21:12;99022.53;;;30.80;47.17
16431;BME280;8325;49.284;7.238;2023-07-09T08:25:24;99020.03;;;31.16;47.12
16431;BME280;8325;49.284;7.238;2023-07-09T08:29:36;99003.06;;;31.57;45.83
16431;BME280;8325;49.284;7.238;2023-07-09T08:33:47;99011.03;;;31.90;45.19
16431;BME280;8325;49.284;7.238;2023-07-09T08:37:59;99001.88;;;31.35;46.69
16431;BME280;8325;49.284;7.238;2023-07-09T08:42:14;99010.78;;;31.03;45.92
16431;BME280;8325;49.284;7.238;2023-07-09T08:46:33;99011.16;;;31.43;47.40
16431;BME280;8325;49.284;7.238;2023-07-09T08:50:51;99014.84;;;31.61;46.57
16431;BME280;8325;49.284;7.238;2023-07-09T08:55:12;99019.25;;;31.57;44.70
16431;BME280;8325;49.284;7.238;2023-07-09T08:59:26;99012.22;;;31.56;46.39
16431;BME280;8325;49.284;7.238;2023-07-09T09:03:51;99016.25;;;31.45;46.41
16431;BME280;8325;49.284;7.238;2023-07-09T09:08:39;99012.22;;;31.56;47.14
16431;BME280;8325;49.284;7.238;2023-07-09T09:12:59;98988.63;;;31.61;45.96
16431;BME280;8325;49.284;7.238;2023-07-09T09:17:15;98993.06;;;31.57;45.50
16431;BME280;8325;49.284;7.238;2023-07-09T09:21:34;98994.84;;;31.62;43.73
16431;BME280;8325;49.284;7.238;2023-07-09T09:25:52;98978.81;;;31.79;44.53
16431;BME280;8325;49.284;7.238;2023-07-09T09:30:24;98975.56;;;32.05;42.87
16431;BME280;8325;49.284;7.238;2023-07-09T09:34:36;98963.31;;;32.21;40.17
16431;BME280;8325;49.284;7.238;2023-07-09T09:38:48;98961.47;;;32.30;39.39
16431;BME280;8325;49.284;7.238;2023-07-09T09:43:04;98967.25;;;32.38;38.82
16431;BME280;8325;49.284;7.238;2023-07-09T09:47:26;98972.22;;;32.22;37.74
16431;BME280;8325;49.284;7.238;2023-07-09T09:51:40;98967.25;;;32.38;37.90
16431;BME280;8325;49.284;7.238;2023-07-09T09:55:56;98973.41;;;32.52;38.39
16431;BME280;8325;49.284;7.238;2023-07-09T10:00:14;98978.00;;;32.74;37.46
16431;BME280;8325;49.284;7.238;2023-07-09T10:04:28;98970.91;;;32.87;36.12
16431;BME280;8325;49.284;7.238;2023-07-09T10:13:26;98960.03;;;33.09;36.11
16431;BME280;8325;49.284;7.238;2023-07-09T10:18:01;98948.44;;;33.17;36.58
16431;BME280;8325;49.284;7.238;2023-07-09T10:26:50;98959.22;;;33.09;35.20
16431;BME280;8325;49.284;7.238;2023-07-09T10:35:35;98960.66;;;33.06;34.11
16431;BME280;8325;49.284;7.238;2023-07-09T10:39:51;98960.72;;;33.23;33.73
16431;BME280;8325;49.284;7.238;2023-07-09T10:44:10;98960.50;;;33.51;34.69
16431;BME280;8325;49.284;7.238;2023-07-09T10:48:36;98966.13;;;33.89;33.62
16431;BME280;8325;49.284;7.238;2023-07-09T10:52:51;98954.47;;;33.89;33.71
16431;BME280;8325;49.284;7.238;2023-07-09T10:57:12;98951.03;;;33.40;31.59
16431;BME280;8325;49.284;7.238;2023-07-09T11:01:32;98946.75;;;33.39;34.29
16431;BME280;8325;49.284;7.238;2023-07-09T11:05:48;98946.78;;;33.47;34.20
16431;BME280;8325;49.284;7.238;2023-07-09T11:10:05;98943.97;;;33.79;35.28
16431;BME280;8325;49.284;7.238;2023-07-09T11:14:48;98932.66;;;34.20;33.72
16431;BME280;8325;49.284;7.238;2023-07-09T11:19:03;98936.66;;;34.23;32.38
16431;BME280;8325;49.284;7.238;2023-07-09T11:23:23;98930.56;;;34.43;33.00
16431;BME280;8325;49.284;7.238;2023-07-09T11:27:48;98928.66;;;34.18;32.10
16431;BME280;8325;49.284;7.238;2023-07-09T11:32:08;98921.81;;;34.20;33.80
16431;BME280;8325;49.284;7.238;2023-07-09T11:36:26;98934.28;;;34.12;33.49
16431;BME280;8325;49.284;7.238;2023-07-09T11:40:54;98930.59;;;34.08;34.39
16431;BME280;8325;49.284;7.238;2023-07-09T11:45:11;98934.28;;;34.12;33.89
16431;BME280;8325;49.284;7.238;2023-07-09T11:49:26;98925.81;;;34.23;34.20
16431;BME280;8325;49.284;7.238;2023-07-09T11:53:45;98919.84;;;34.47;32.93
16431;BME280;8325;49.284;7.238;2023-07-09T11:58:00;98911.84;;;34.68;32.42
16431;BME280;8325;49.284;7.238;2023-07-09T12:02:16;98905.88;;;34.83;31.94
16431;BME280;8325;49.284;7.238;2023-07-09T12:06:31;98904.06;;;34.96;30.68
16431;BME280;8325;49.284;7.238;2023-07-09T12:10:44;98900.16;;;35.14;30.76
16431;BME280;8325;49.284;7.238;2023-07-09T12:14:55;98895.00;;;35.21;30.98
16431;BME280;8325;49.284;7.238;2023-07-09T12:19:10;98898.63;;;34.96;29.14
16431;BME280;8325;49.284;7.238;2023-07-09T12:23:28;98885.19;;;34.70;29.69
16431;BME280;8325;49.284;7.238;2023-07-09T12:27:41;98890.91;;;34.77;28.96
16431;BME280;8325;49.284;7.238;2023-07-09T12:31:56;98886.34;;;34.98;29.61
16431;BME280;8325;49.284;7.238;2023-07-09T12:36:10;98867.91;;;35.13;28.27
16431;BME280;8325;49.284;7.238;2023-07-09T12:40:28;98879.47;;;35.01;28.82
16431;BME280;8325;49.284;7.238;2023-07-09T12:44:40;98880.19;;;34.80;30.20
16431;BME280;8325;49.284;7.238;2023-07-09T12:48:54;98870.31;;;34.76;29.17
16431;BME280;8325;49.284;7.238;2023-07-09T12:53:15;98864.63;;;34.60;29.88
16431;BME280;8325;49.284;7.238;2023-07-09T12:57:29;98879.19;;;34.55;28.51
16431;BME280;8325;49.284;7.238;2023-07-09T13:02:28;98877.56;;;34.63;27.45
16431;BME280;8325;49.284;7.238;2023-07-09T13:06:27;98872.25;;;34.67;28.16
16431;BME280;8325;49.284;7.238;2023-07-09T13:10:40;98861.31;;;34.54;27.46
16431;BME280;8325;49.284;7.238;2023-07-09T13:14:56;98861.94;;;34.51;29.05
16431;BME280;8325;49.284;7.238;2023-07-09T13:19:11;98863.38;;;34.57;27.99
16431;BME280;8325;49.284;7.238;2023-07-09T13:23:29;98857.47;;;34.64;29.05
16431;BME280;8325;49.284;7.238;2023-07-09T13:27:43;98843.53;;;34.74;29.55
16431;BME280;8325;49.284;7.238;2023-07-09T13:31:56;98852.31;;;34.71;28.63
16431;BME280;8325;49.284;7.238;2023-07-09T13:36:09;98834.91;;;34.72;29.10
16431;BME280;8325;49.284;7.238;2023-07-09T13:40:21;98826.06;;;34.84;28.93
16431;BME280;8325;49.284;7.238;2023-07-09T13:44:33;98817.97;;;34.75;28.39
16431;BME280;8325;49.284;7.238;2023-07-09T13:48:45;98828.69;;;34.72;28.91
16431;BME280;8325;49.284;7.238;2023-07-09T13:52:57;98832.47;;;34.41;28.52
16431;BME280;8325;49.284;7.238;2023-07-09T13:57:12;98845.25;;;34.32;29.68
16431;BME280;8325;49.284;7.238;2023-07-09T14:01:24;98842.59;;;34.14;30.25
16431;BME280;8325;49.284;7.238;2023-07-09T14:05:36;98846.13;;;34.06;31.07
16431;BME280;8325;49.284;7.238;2023-07-09T14:09:48;98861.56;;;33.97;31.39
16431;BME280;8325;49.284;7.238;2023-07-09T14:13:59;98862.38;;;33.89;30.97
16431;BME280;8325;49.284;7.238;2023-07-09T14:18:22;98863.66;;;33.91;31.14
16431;BME280;8325;49.284;7.238;2023-07-09T14:22:36;98865.56;;;33.91;31.01
16431;BME280;8325;49.284;7.238;2023-07-09T14:26:50;98865.56;;;33.91;30.58
16431;BME280;8325;49.284;7.238;2023-07-09T14:31:01;98867.63;;;33.85;28.45
16431;BME280;8325;49.284;7.238;2023-07-09T14:35:23;98889.63;;;33.92;28.11
16431;BME280;8325;49.284;7.238;2023-07-09T14:39:35;98949.38;;;33.79;32.71
16431;BME280;8325;49.284;7.238;2023-07-09T14:43:46;98944.16;;;33.25;35.65
16431;BME280;8325;49.284;7.238;2023-07-09T14:47:58;98926.78;;;32.77;37.33
16431;BME280;8325;49.284;7.238;2023-07-09T14:52:29;98921.16;;;32.43;38.82
16431;BME280;8325;49.284;7.238;2023-07-09T14:56:41;98926.34;;;32.30;39.96
16431;BME280;8325;49.284;7.238;2023-07-09T15:00:52;98916.78;;;31.88;40.91
16431;BME280;8325;49.284;7.238;2023-07-09T15:05:10;98932.69;;;31.53;42.36
16431;BME280;8325;49.284;7.238;2023-07-09T15:09:27;98930.59;;;31.36;42.75
16431;BME280;8325;49.284;7.238;2023-07-09T15:13:39;98919.69;;;31.14;43.40
16431;BME280;8325;49.284;7.238;2023-07-09T15:17:52;98917.28;;;30.99;44.27
16431;BME280;8325;49.284;7.238;2023-07-09T15:22:04;98917.50;;;30.88;44.07
16431;BME280;8325;49.284;7.238;2023-07-09T15:26:16;98906.13;;;30.91;43.91
16431;BME280;8325;49.284;7.238;2023-07-09T15:30:29;98911.50;;;30.45;44.58
16431;BME280;8325;49.284;7.238;2023-07-09T15:34:41;98918.38;;;30.84;44.02
16431;BME280;8325;49.284;7.238;2023-07-09T15:38:53;98925.31;;;31.04;44.46
16431;BME280;8325;49.284;7.238;2023-07-09T15:43:06;98899.59;;;31.20;43.84
16431;BME280;8325;49.284;7.238;2023-07-09T15:47:23;98886.22;;;31.65;43.21
16431;BME280;8325;49.284;7.238;2023-07-09T15:51:35;98893.28;;;32.11;42.64
16431;BME280;8325;49.284;7.238;2023-07-09T15:55:47;98889.84;;;32.19;41.92
16431;BME280;8325;49.284;7.238;2023-07-09T15:59:59;98885.31;;;32.06;41.80
16431;BME280;8325;49.284;7.238;2023-07-09T16:04:10;98881.75;;;31.97;42.65
16431;BME280;8325;49.284;7.238;2023-07-09T16:08:22;98876.75;;;32.35;41.37
16431;BME280;8325;49.284;7.238;2023-07-09T16:12:34;98867.13;;;32.20;41.99
16431;BME280;8325;49.284;7.238;2023-07-09T16:16:45;98853.09;;;31.51;43.14
16431;BME280;8325;49.284;7.238;2023-07-09T16:21:02;98850.63;;;31.27;43.81
16431;BME280;8325;49.284;7.238;2023-07-09T16:25:15;98848.75;;;31.13;44.47
16431;BME280;8325;49.284;7.238;2023-07-09T16:29:30;98837.88;;;31.05;45.01
16431;BME280;8325;49.284;7.238;2023-07-09T16:33:42;98831.38;;;31.06;45.55
16431;BME280;8325;49.284;7.238;2023-07-09T16:37:54;98816.00;;;30.65;46.30
16431;BME280;8325;49.284;7.238;2023-07-09T16:42:14;98812.59;;;30.45;47.48
16431;BME280;8325;49.284;7.238;2023-07-09T16:46:26;98804.22;;;30.33;47.86
16431;BME280;8325;49.284;7.238;2023-07-09T16:50:37;98812.09;;;30.11;49.29
16431;BME280;8325;49.284;7.238;2023-07-09T16:54:49;98786.03;;;30.25;48.07
16431;BME280;8325;49.284;7.238;2023-07-09T16:59:01;98785.97;;;30.58;47.83
16431;BME280;8325;49.284;7.238;2023-07-09T17:03:12;98789.28;;;30.82;46.91
16431;BME280;8325;49.284;7.238;2023-07-09T17:07:25;98783.88;;;30.82;46.87
16431;BME280;8325;49.284;7.238;2023-07-09T17:11:36;98764.41;;;30.58;47.49
16431;BME280;8325;49.284;7.238;2023-07-09T17:15:48;98762.78;;;30.57;48.08
16431;BME280;8325;49.284;7.238;2023-07-09T17:20:00;98777.28;;;30.88;47.61
16431;BME280;8325;49.284;7.238;2023-07-09T17:24:19;98777.47;;;30.78;47.62
16431;BME280;8325;49.284;7.238;2023-07-09T17:28:31;98765.66;;;30.74;47.60
16431;BME280;8325;49.284;7.238;2023-07-09T17:32:43;98770.59;;;30.86;48.61
16431;BME280;8325;49.284;7.238;2023-07-09T17:36:55;98781.47;;;30.81;48.58
16431;BME280;8325;49.284;7.238;2023-07-09T17:41:07;98787.66;;;30.81;48.63
16431;BME280;8325;49.284;7.238;2023-07-09T17:45:22;98780.44;;;30.63;48.68
16431;BME280;8325;49.284;7.238;2023-07-09T17:49:34;98783.44;;;30.47;49.32
16431;BME280;8325;49.284;7.238;2023-07-09T17:53:45;98791.13;;;30.40;49.86
16431;BME280;8325;49.284;7.238;2023-07-09T17:57:57;98790.44;;;30.48;50.48
16431;BME280;8325;49.284;7.238;2023-07-09T18:02:18;98794.22;;;30.47;51.09
16431;BME280;8325;49.284;7.238;2023-07-09T18:06:31;98795.13;;;30.43;50.66
16431;BME280;8325;49.284;7.238;2023-07-09T18:10:43;98791.81;;;30.32;51.50
16431;BME280;8325;49.284;7.238;2023-07-09T18:14:57;98787.72;;;30.21;49.58
16431;BME280;8325;49.284;7.238;2023-07-09T18:19:20;98796.38;;;30.18;50.20
16431;BME280;8325;49.284;7.238;2023-07-09T18:23:32;98795.94;;;30.11;49.99
16431;BME280;8325;49.284;7.238;2023-07-09T18:27:46;98802.50;;;30.04;50.86
16431;BME280;8325;49.284;7.238;2023-07-09T18:32:00;98804.19;;;29.87;50.95
16431;BME280;8325;49.284;7.238;2023-07-09T18:36:15;98798.88;;;29.81;50.94
16431;BME280;8325;49.284;7.238;2023-07-09T18:40:29;98795.13;;;29.64;53.24
16431;BME280;8325;49.284;7.238;2023-07-09T18:44:42;98799.59;;;29.49;54.19
16431;BME280;8325;49.284;7.238;2023-07-09T18:48:54;98803.41;;;29.29;54.47
16431;BME280;8325;49.284;7.238;2023-07-09T18:53:09;98811.16;;;29.12;56.89
16431;BME280;8325;49.284;7.238;2023-07-09T18:57:22;98806.53;;;28.94;58.22
16431;BME280;8325;49.284;7.238;2023-07-09T19:01:34;98815.66;;;28.74;60.26
16431;BME280;8325;49.284;7.238;2023-07-09T19:05:47;98808.28;;;28.60;61.92
16431;BME280;8325;49.284;7.238;2023-07-09T19:09:58;98812.25;;;28.39;62.97
16431;BME280;8325;49.284;7.238;2023-07-09T19:14:11;98811.28;;;28.25;64.06
16431;BME280;8325;49.284;7.238;2023-07-09T19:18:25;98815.16;;;28.13;65.48
16431;BME280;8325;49.284;7.238;2023-07-09T19:22:38;98812.03;;;28.01;66.21
16431;BME280;8325;49.284;7.238;2023-07-09T19:26:51;98822.97;;;27.81;67.36
16431;BME280;8325;49.284;7.238;2023-07-09T19:31:02;98821.94;;;27.66;68.03
16431;BME280;8325;49.284;7.238;2023-07-09T19:35:19;98824.72;;;27.51;68.09
16431;BME280;8325;49.284;7.238;2023-07-09T19:39:35;98826.41;;;27.42;68.70
16431;BME280;8325;49.284;7.238;2023-07-09T19:43:47;98832.06;;;27.40;68.67
16431;BME280;8325;49.284;7.238;2023-07-09T19:47:59;98832.38;;;27.28;68.47
16431;BME280;8325;49.284;7.238;2023-07-09T19:52:14;98842.09;;;27.14;68.92
16431;BME280;8325;49.284;7.238;2023-07-09T19:56:26;98848.00;;;27.06;69.56
16431;BME280;8325;49.284;7.238;2023-07-09T20:00:38;98857.19;;;26.90;71.12
16431;BME280;8325;49.284;7.238;2023-07-09T20:04:50;98861.78;;;26.79;71.50
16431;BME280;8325;49.284;7.238;2023-07-09T20:09:02;98864.50;;;26.58;71.79
16431;BME280;8325;49.284;7.238;2023-07-09T20:13:17;98858.09;;;26.49;71.94
16431;BME280;8325;49.284;7.238;2023-07-09T20:17:31;98862.06;;;26.41;72.16
16431;BME280;8325;49.284;7.238;2023-07-09T20:21:44;98867.44;;;26.26;71.76
16431;BME280;8325;49.284;7.238;2023-07-09T20:25:58;98877.63;;;26.14;71.64
16431;BME280;8325;49.284;7.238;2023-07-09T20:30:12;98881.38;;;26.13;71.65
16431;BME280;8325;49.284;7.238;2023-07-09T20:34:24;98885.66;;;25.99;72.01
16431;BME280;8325;49.284;7.238;2023-07-09T20:38:37;98892.31;;;25.86;73.25
16431;BME280;8325;49.284;7.238;2023-07-09T20:42:53;98895.28;;;25.84;72.62
16431;BME280;8325;49.284;7.238;2023-07-09T20:47:15;98891.47;;;25.75;72.86
16431;BME280;8325;49.284;7.238;2023-07-09T20:51:27;98893.31;;;25.64;73.01
16431;BME280;8325;49.284;7.238;2023-07-09T20:55:38;98909.63;;;25.58;72.99
16431;BME280;8325;49.284;7.238;2023-07-09T20:59:53;98902.91;;;25.50;72.99
16431;BME280;8325;49.284;7.238;2023-07-09T21:04:15;98911.41;;;25.37;73.47
16431;BME280;8325;49.284;7.238;2023-07-09T21:08:28;98917.81;;;25.31;73.74
16431;BME280;8325;49.284;7.238;2023-07-09T21:12:40;98923.16;;;25.25;73.35
16431;BME280;8325;49.284;7.238;2023-07-09T21:16:55;98927.38;;;25.16;73.67
16431;BME280;8325;49.284;7.238;2023-07-09T21:21:08;98936.13;;;25.12;74.12
16431;BME280;8325;49.284;7.238;2023-07-09T21:25:23;98938.72;;;24.96;74.69
16431;BME280;8325;49.284;7.238;2023-07-09T21:29:35;98939.78;;;24.95;76.14
